sensor_id;sensor_type;location;lat;lon;timestamp;P1;durP1;ratioP1;P2;durP2;ratioP2
23115;SDS011;11727;52.134;5.052;2022-12-10T00:01:20;51.90;;;16.10;;
23115;SDS011;11727;52.134;5.052;2022-12-10T00:03:47;33.75;;;11.98;;
23115;SDS011;11727;52.134;5.052;2022-12-10T00:06:14;43.42;;;14.73;;
23115;SDS011;11727;52.134;5.052;2022-12-10T00:08:41;37.97;;;13.55;;
23115;SDS011;11727;52.134;5.052;2022-12-10T00:11:09;46.30;;;15.95;;
23115;SDS011;11727;52.134;5.052;2022-12-10T00:13:36;48.70;;;15.75;;
23115;SDS011;11727;52.134;5.052;2022-12-10T00:16:03;43.90;;;15.30;;
23115;SDS011;11727;52.134;5.052;2022-12-10T00:18:30;45.05;;;15.20;;
23115;SDS011;11727;52.134;5.052;2022-12-10T00:20:57;51.75;;;15.65;;
23115;SDS011;11727;52.134;5.052;2022-12-10T00:23:22;59.80;;;17.48;;
23115;SDS011;11727;52.134;5.052;2022-12-10T00:25:48;51.78;;;16.15;;
23115;SDS011;11727;52.134;5.052;2022-12-10T00:28:14;54.22;;;16.95;;
23115;SDS011;11727;52.134;5.052;2022-12-10T00:30:39;58.00;;;16.63;;
23115;SDS011;11727;52.134;5.052;2022-12-10T00:33:05;53.63;;;15.40;;
23115;SDS011;11727;52.134;5.052;2022-12-10T00:35:30;52.85;;;14.88;;
23115;SDS011;11727;52.134;5.052;2022-12-10T00:37:56;54.13;;;14.32;;
23115;SDS011;11727;52.134;5.052;2022-12-10T00:40:22;53.45;;;16.05;;
23115;SDS011;11727;52.134;5.052;2022-12-10T00:42:48;48.80;;;15.45;;
23115;SDS011;11727;52.134;5.052;2022-12-10T00:45:13;49.33;;;15.38;;
23115;SDS011;11727;52.134;5.052;2022-12-10T00:47:39;43.15;;;14.80;;
23115;SDS011;11727;52.134;5.052;2022-12-10T00:50:05;43.33;;;12.30;;
23115;SDS011;11727;52.134;5.052;2022-12-10T00:52:30;48.75;;;12.77;;
23115;SDS011;11727;52.134;5.052;2022-12-10T00:54:56;43.92;;;13.50;;
23115;SDS011;11727;52.134;5.052;2022-12-10T00:57:21;38.13;;;11.93;;
23115;SDS011;11727;52.134;5.052;2022-12-10T00:59:47;51.72;;;13.18;;
23115;SDS011;11727;52.134;5.052;2022-12-10T01:02:13;39.38;;;12.30;;
23115;SDS011;11727;52.134;5.052;2022-12-10T01:04:38;37.78;;;11.85;;
23115;SDS011;11727;52.134;5.052;2022-12-10T01:07:04;47.22;;;13.77;;
23115;SDS011;11727;52.134;5.052;2022-12-10T01:09:30;46.78;;;12.73;;
23115;SDS011;11727;52.134;5.052;2022-12-10T01:11:56;45.33;;;13.50;;
23115;SDS011;11727;52.134;5.052;2022-12-10T01:14:26;42.42;;;12.25;;
23115;SDS011;11727;52.134;5.052;2022-12-10T01:16:54;35.55;;;10.90;;
23115;SDS011;11727;52.134;5.052;2022-12-10T01:19:22;41.80;;;11.90;;
23115;SDS011;11727;52.134;5.052;2022-12-10T01:21:51;43.25;;;12.02;;
23115;SDS011;11727;52.134;5.052;2022-12-10T01:24:17;43.45;;;12.70;;
23115;SDS011;11727;52.134;5.052;2022-12-10T01:26:44;42.22;;;13.38;;
23115;SDS011;11727;52.134;5.052;2022-12-10T01:29:10;52.50;;;14.30;;
23115;SDS011;11727;52.134;5.052;2022-12-10T01:31:37;43.97;;;13.65;;
23115;SDS011;11727;52.134;5.052;2022-12-10T01:34:03;60.15;;;16.17;;
23115;SDS011;11727;52.134;5.052;2022-12-10T01:36:52;56.45;;;13.48;;
23115;SDS011;11727;52.134;5.052;2022-12-10T01:41:48;49.13;;;14.38;;
23115;SDS011;11727;52.134;5.052;2022-12-10T01:46:40;61.55;;;14.75;;
23115;SDS011;11727;52.134;5.052;2022-12-10T01:49:09;45.08;;;14.32;;
23115;SDS011;11727;52.134;5.052;2022-12-10T01:51:38;52.67;;;13.13;;
23115;SDS011;11727;52.134;5.052;2022-12-10T01:54:05;54.42;;;15.68;;
23115;SDS011;11727;52.134;5.052;2022-12-10T01:56:35;54.53;;;14.93;;
23115;SDS011;11727;52.134;5.052;2022-12-10T01:59:05;66.85;;;18.00;;
23115;SDS011;11727;52.134;5.052;2022-12-10T02:01:40;66.28;;;16.95;;
23115;SDS011;11727;52.134;5.052;2022-12-10T02:06:59;50.33;;;15.50;;
23115;SDS011;11727;52.134;5.052;2022-12-10T02:15:12;74.93;;;16.08;;
23115;SDS011;11727;52.134;5.052;2022-12-10T02:17:51;62.75;;;16.02;;
23115;SDS011;11727;52.134;5.052;2022-12-10T02:20:29;44.10;;;11.27;;
23115;SDS011;11727;52.134;5.052;2022-12-10T02:25:29;55.38;;;16.25;;
23115;SDS011;11727;52.134;5.052;2022-12-10T02:28:17;68.65;;;17.67;;
23115;SDS011;11727;52.134;5.052;2022-12-10T02:30:43;45.50;;;13.80;;
23115;SDS011;11727;52.134;5.052;2022-12-10T02:33:10;46.40;;;11.23;;
23115;SDS011;11727;52.134;5.052;2022-12-10T02:38:13;58.95;;;15.45;;
23115;SDS011;11727;52.134;5.052;2022-12-10T02:40:46;40.30;;;10.82;;
23115;SDS011;11727;52.134;5.052;2022-12-10T02:43:14;53.35;;;15.75;;
23115;SDS011;11727;52.134;5.052;2022-12-10T02:45:41;64.25;;;16.42;;
23115;SDS011;11727;52.134;5.052;2022-12-10T02:48:08;60.83;;;16.27;;
23115;SDS011;11727;52.134;5.052;2022-12-10T02:50:36;93.70;;;16.77;;
23115;SDS011;11727;52.134;5.052;2022-12-10T02:53:01;66.13;;;16.90;;
23115;SDS011;11727;52.134;5.052;2022-12-10T02:55:28;67.70;;;17.17;;
23115;SDS011;11727;52.134;5.052;2022-12-10T02:58:18;66.05;;;15.32;;
23115;SDS011;11727;52.134;5.052;2022-12-10T03:00:53;79.75;;;16.92;;
23115;SDS011;11727;52.134;5.052;2022-12-10T03:08:49;58.45;;;16.27;;
23115;SDS011;11727;52.134;5.052;2022-12-10T03:11:20;70.90;;;19.67;;
23115;SDS011;11727;52.134;5.052;2022-12-10T03:13:55;56.95;;;15.20;;
23115;SDS011;11727;52.134;5.052;2022-12-10T03:16:31;63.95;;;15.02;;
23115;SDS011;11727;52.134;5.052;2022-12-10T03:19:03;51.78;;;16.23;;
23115;SDS011;11727;52.134;5.052;2022-12-10T03:21:31;49.72;;;14.63;;
23115;SDS011;11727;52.134;5.052;2022-12-10T03:23:59;55.88;;;17.33;;
23115;SDS011;11727;52.134;5.052;2022-12-10T03:26:25;66.63;;;16.42;;
23115;SDS011;11727;52.134;5.052;2022-12-10T03:28:56;43.85;;;12.80;;
23115;SDS011;11727;52.134;5.052;2022-12-10T03:31:29;54.00;;;14.75;;
23115;SDS011;11727;52.134;5.052;2022-12-10T03:33:55;47.08;;;14.65;;
23115;SDS011;11727;52.134;5.052;2022-12-10T03:36:21;55.53;;;14.77;;
23115;SDS011;11727;52.134;5.052;2022-12-10T03:38:47;62.72;;;17.08;;
23115;SDS011;11727;52.134;5.052;2022-12-10T03:41:14;66.10;;;14.70;;
23115;SDS011;11727;52.134;5.052;2022-12-10T03:43:58;52.38;;;15.63;;
23115;SDS011;11727;52.134;5.052;2022-12-10T03:46:26;40.47;;;12.90;;
23115;SDS011;11727;52.134;5.052;2022-12-10T03:48:54;61.20;;;16.27;;
23115;SDS011;11727;52.134;5.052;2022-12-10T03:51:20;49.47;;;13.35;;
23115;SDS011;11727;52.134;5.052;2022-12-10T03:53:46;38.23;;;13.63;;
23115;SDS011;11727;52.134;5.052;2022-12-10T03:56:14;52.47;;;14.18;;
23115;SDS011;11727;52.134;5.052;2022-12-10T03:58:40;44.53;;;14.25;;
23115;SDS011;11727;52.134;5.052;2022-12-10T04:01:06;54.83;;;14.45;;
23115;SDS011;11727;52.134;5.052;2022-12-10T04:03:34;43.13;;;14.05;;
23115;SDS011;11727;52.134;5.052;2022-12-10T04:06:08;53.05;;;16.23;;
23115;SDS011;11727;52.134;5.052;2022-12-10T04:08:37;42.85;;;14.15;;
23115;SDS011;11727;52.134;5.052;2022-12-10T04:11:06;56.72;;;16.30;;
23115;SDS011;11727;52.134;5.052;2022-12-10T04:13:34;49.67;;;15.80;;
23115;SDS011;11727;52.134;5.052;2022-12-10T04:16:19;74.50;;;15.88;;
23115;SDS011;11727;52.134;5.052;2022-12-10T04:21:28;62.15;;;16.70;;
23115;SDS011;11727;52.134;5.052;2022-12-10T04:24:14;54.75;;;14.27;;
23115;SDS011;11727;52.134;5.052;2022-12-10T04:26:59;61.85;;;16.45;;
23115;SDS011;11727;52.134;5.052;2022-12-10T04:29:29;58.88;;;15.20;;
23115;SDS011;11727;52.134;5.052;2022-12-10T04:31:55;60.20;;;16.27;;
23115;SDS011;11727;52.134;5.052;2022-12-10T04:34:22;47.60;;;15.25;;
23115;SDS011;11727;52.134;5.052;2022-12-10T04:36:49;40.30;;;11.90;;
23115;SDS011;11727;52.134;5.052;2022-12-10T04:39:14;57.20;;;15.30;;
23115;SDS011;11727;52.134;5.052;2022-12-10T04:41:41;45.53;;;13.77;;
23115;SDS011;11727;52.134;5.052;2022-12-10T04:44:09;50.83;;;14.07;;
23115;SDS011;11727;52.134;5.052;2022-12-10T04:46:35;39.42;;;12.70;;
23115;SDS011;11727;52.134;5.052;2022-12-10T04:49:01;52.47;;;12.68;;
23115;SDS011;11727;52.134;5.052;2022-12-10T04:51:27;41.40;;;13.90;;
23115;SDS011;11727;52.134;5.052;2022-12-10T04:53:53;59.13;;;12.50;;
23115;SDS011;11727;52.134;5.052;2022-12-10T04:56:18;51.92;;;14.75;;
23115;SDS011;11727;52.134;5.052;2022-12-10T04:58:44;35.60;;;13.40;;
23115;SDS011;11727;52.134;5.052;2022-12-10T05:01:10;46.28;;;12.07;;
23115;SDS011;11727;52.134;5.052;2022-12-10T05:03:39;49.92;;;14.13;;
23115;SDS011;11727;52.134;5.052;2022-12-10T05:06:06;44.45;;;11.90;;
23115;SDS011;11727;52.134;5.052;2022-12-10T05:08:35;42.30;;;12.35;;
23115;SDS011;11727;52.134;5.052;2022-12-10T05:11:03;36.50;;;11.60;;
23115;SDS011;11727;52.134;5.052;2022-12-10T05:13:30;36.15;;;11.30;;
23115;SDS011;11727;52.134;5.052;2022-12-10T05:15:55;33.83;;;10.88;;
23115;SDS011;11727;52.134;5.052;2022-12-10T05:18:21;39.40;;;11.98;;
23115;SDS011;11727;52.134;5.052;2022-12-10T05:20:47;44.92;;;12.43;;
23115;SDS011;11727;52.134;5.052;2022-12-10T05:23:13;33.05;;;10.98;;
23115;SDS011;11727;52.134;5.052;2022-12-10T05:26:04;39.20;;;11.45;;
23115;SDS011;11727;52.134;5.052;2022-12-10T05:28:32;36.88;;;11.38;;
23115;SDS011;11727;52.134;5.052;2022-12-10T05:31:04;45.47;;;13.43;;
23115;SDS011;11727;52.134;5.052;2022-12-10T05:33:30;51.30;;;12.90;;
23115;SDS011;11727;52.134;5.052;2022-12-10T05:35:57;39.13;;;12.30;;
23115;SDS011;11727;52.134;5.052;2022-12-10T05:38:25;41.13;;;11.85;;
23115;SDS011;11727;52.134;5.052;2022-12-10T05:40:51;24.52;;;8.90;;
23115;SDS011;11727;52.134;5.052;2022-12-10T05:43:17;50.75;;;13.35;;
23115;SDS011;11727;52.134;5.052;2022-12-10T05:45:43;37.35;;;11.80;;
23115;SDS011;11727;52.134;5.052;2022-12-10T05:48:09;39.30;;;11.80;;
23115;SDS011;11727;52.134;5.052;2022-12-10T05:50:35;40.75;;;11.40;;
23115;SDS011;11727;52.134;5.052;2022-12-10T05:53:01;31.95;;;11.90;;
23115;SDS011;11727;52.134;5.052;2022-12-10T05:55:27;41.95;;;11.73;;
23115;SDS011;11727;52.134;5.052;2022-12-10T05:57:54;35.55;;;10.07;;
23115;SDS011;11727;52.134;5.052;2022-12-10T06:00:20;49.92;;;13.13;;
23115;SDS011;11727;52.134;5.052;2022-12-10T06:02:48;35.65;;;10.90;;
23115;SDS011;11727;52.134;5.052;2022-12-10T06:05:14;36.83;;;10.90;;
23115;SDS011;11727;52.134;5.052;2022-12-10T06:07:40;30.55;;;9.63;;
23115;SDS011;11727;52.134;5.052;2022-12-10T06:10:05;31.95;;;9.35;;
23115;SDS011;11727;52.134;5.052;2022-12-10T06:12:34;37.78;;;10.98;;
23115;SDS011;11727;52.134;5.052;2022-12-10T06:15:00;35.17;;;10.40;;
23115;SDS011;11727;52.134;5.052;2022-12-10T06:17:25;29.13;;;9.65;;
23115;SDS011;11727;52.134;5.052;2022-12-10T06:19:54;29.58;;;9.98;;
23115;SDS011;11727;52.134;5.052;2022-12-10T06:22:19;38.63;;;10.88;;
23115;SDS011;11727;52.134;5.052;2022-12-10T06:24:45;32.63;;;10.55;;
23115;SDS011;11727;52.134;5.052;2022-12-10T06:27:10;37.75;;;10.65;;
23115;SDS011;11727;52.134;5.052;2022-12-10T06:29:39;31.10;;;9.32;;
23115;SDS011;11727;52.134;5.052;2022-12-10T06:32:05;37.72;;;9.98;;
23115;SDS011;11727;52.134;5.052;2022-12-10T06:34:31;48.65;;;11.98;;
23115;SDS011;11727;52.134;5.052;2022-12-10T06:36:56;36.20;;;11.63;;
23115;SDS011;11727;52.134;5.052;2022-12-10T06:39:22;36.22;;;11.18;;
23115;SDS011;11727;52.134;5.052;2022-12-10T06:41:48;35.90;;;10.85;;
23115;SDS011;11727;52.134;5.052;2022-12-10T06:44:13;34.38;;;10.60;;
23115;SDS011;11727;52.134;5.052;2022-12-10T06:46:39;37.15;;;10.93;;
23115;SDS011;11727;52.134;5.052;2022-12-10T06:49:05;27.15;;;8.77;;
23115;SDS011;11727;52.134;5.052;2022-12-10T06:51:31;41.08;;;12.25;;
23115;SDS011;11727;52.134;5.052;2022-12-10T06:53:57;43.47;;;12.10;;
23115;SDS011;11727;52.134;5.052;2022-12-10T06:56:23;37.75;;;10.70;;
23115;SDS011;11727;52.134;5.052;2022-12-10T06:58:48;36.28;;;11.23;;
23115;SDS011;11727;52.134;5.052;2022-12-10T07:01:16;33.60;;;12.20;;
23115;SDS011;11727;52.134;5.052;2022-12-10T07:03:50;36.95;;;10.82;;
23115;SDS011;11727;52.134;5.052;2022-12-10T07:06:20;30.00;;;10.65;;
23115;SDS011;11727;52.134;5.052;2022-12-10T07:08:47;30.85;;;8.57;;
23115;SDS011;11727;52.134;5.052;2022-12-10T07:11:13;38.35;;;11.27;;
23115;SDS011;11727;52.134;5.052;2022-12-10T07:13:41;46.20;;;11.35;;
23115;SDS011;11727;52.134;5.052;2022-12-10T07:18:41;39.67;;;12.90;;
23115;SDS011;11727;52.134;5.052;2022-12-10T07:21:17;37.67;;;11.85;;
23115;SDS011;11727;52.134;5.052;2022-12-10T07:23:46;32.42;;;10.63;;
23115;SDS011;11727;52.134;5.052;2022-12-10T07:26:11;40.50;;;12.52;;
23115;SDS011;11727;52.134;5.052;2022-12-10T07:28:37;30.33;;;8.68;;
23115;SDS011;11727;52.134;5.052;2022-12-10T07:31:04;25.05;;;10.05;;
23115;SDS011;11727;52.134;5.052;2022-12-10T07:33:31;36.38;;;9.95;;
23115;SDS011;11727;52.134;5.052;2022-12-10T07:35:57;49.28;;;11.23;;
23115;SDS011;11727;52.134;5.052;2022-12-10T07:38:23;41.15;;;12.10;;
23115;SDS011;11727;52.134;5.052;2022-12-10T07:40:49;28.42;;;10.15;;
23115;SDS011;11727;52.134;5.052;2022-12-10T07:43:16;28.00;;;9.75;;
23115;SDS011;11727;52.134;5.052;2022-12-10T07:45:42;29.50;;;9.93;;
23115;SDS011;11727;52.134;5.052;2022-12-10T07:48:08;30.73;;;11.15;;
23115;SDS011;11727;52.134;5.052;2022-12-10T07:50:34;33.35;;;11.13;;
23115;SDS011;11727;52.134;5.052;2022-12-10T07:53:00;42.40;;;11.18;;
23115;SDS011;11727;52.134;5.052;2022-12-10T07:55:25;45.08;;;10.48;;
23115;SDS011;11727;52.134;5.052;2022-12-10T07:57:51;33.35;;;11.98;;
23115;SDS011;11727;52.134;5.052;2022-12-10T08:00:16;32.38;;;10.40;;
23115;SDS011;11727;52.134;5.052;2022-12-10T08:02:42;33.05;;;11.50;;
23115;SDS011;11727;52.134;5.052;2022-12-10T08:05:08;35.78;;;11.15;;
23115;SDS011;11727;52.134;5.052;2022-12-10T08:07:34;35.92;;;11.18;;
23115;SDS011;11727;52.134;5.052;2022-12-10T08:09:59;35.63;;;11.57;;
23115;SDS011;11727;52.134;5.052;2022-12-10T08:12:25;36.30;;;13.75;;
23115;SDS011;11727;52.134;5.052;2022-12-10T08:14:50;33.40;;;11.70;;
23115;SDS011;11727;52.134;5.052;2022-12-10T08:17:16;34.47;;;11.60;;
23115;SDS011;11727;52.134;5.052;2022-12-10T08:19:42;35.63;;;12.32;;
23115;SDS011;11727;52.134;5.052;2022-12-10T08:22:07;34.13;;;12.55;;
23115;SDS011;11727;52.134;5.052;2022-12-10T08:24:33;27.65;;;10.75;;
23115;SDS011;11727;52.134;5.052;2022-12-10T08:26:58;30.88;;;10.70;;
23115;SDS011;11727;52.134;5.052;2022-12-10T08:29:24;32.83;;;10.95;;
23115;SDS011;11727;52.134;5.052;2022-12-10T08:31:49;39.50;;;12.52;;
23115;SDS011;11727;52.134;5.052;2022-12-10T08:34:16;37.33;;;12.35;;
23115;SDS011;11727;52.134;5.052;2022-12-10T08:36:43;48.55;;;13.55;;
23115;SDS011;11727;52.134;5.052;2022-12-10T08:39:09;32.67;;;9.52;;
23115;SDS011;11727;52.134;5.052;2022-12-10T08:41:39;32.10;;;11.38;;
23115;SDS011;11727;52.134;5.052;2022-12-10T08:44:05;36.05;;;11.63;;
23115;SDS011;11727;52.134;5.052;2022-12-10T08:46:31;35.60;;;14.75;;
23115;SDS011;11727;52.134;5.052;2022-12-10T08:48:56;48.78;;;12.77;;
23115;SDS011;11727;52.134;5.052;2022-12-10T08:51:22;45.13;;;14.20;;
23115;SDS011;11727;52.134;5.052;2022-12-10T08:53:48;45.65;;;12.95;;
23115;SDS011;11727;52.134;5.052;2022-12-10T08:56:14;36.83;;;13.43;;
23115;SDS011;11727;52.134;5.052;2022-12-10T08:58:39;43.72;;;13.55;;
23115;SDS011;11727;52.134;5.052;2022-12-10T09:01:10;50.53;;;12.05;;
23115;SDS011;11727;52.134;5.052;2022-12-10T09:03:37;37.10;;;11.80;;
23115;SDS011;11727;52.134;5.052;2022-12-10T09:06:04;39.42;;;12.30;;
23115;SDS011;11727;52.134;5.052;2022-12-10T09:08:32;38.72;;;11.18;;
23115;SDS011;11727;52.134;5.052;2022-12-10T09:10:58;44.72;;;11.90;;
23115;SDS011;11727;52.134;5.052;2022-12-10T09:13:28;30.75;;;11.52;;
23115;SDS011;11727;52.134;5.052;2022-12-10T09:15:54;45.28;;;12.57;;
23115;SDS011;11727;52.134;5.052;2022-12-10T09:18:19;36.80;;;10.95;;
23115;SDS011;11727;52.134;5.052;2022-12-10T09:20:45;49.88;;;12.38;;
23115;SDS011;11727;52.134;5.052;2022-12-10T09:23:11;41.55;;;10.77;;
23115;SDS011;11727;52.134;5.052;2022-12-10T09:25:36;35.50;;;11.57;;
23115;SDS011;11727;52.134;5.052;2022-12-10T09:28:02;38.97;;;13.35;;
23115;SDS011;11727;52.134;5.052;2022-12-10T09:30:27;39.67;;;12.00;;
23115;SDS011;11727;52.134;5.052;2022-12-10T09:32:53;44.88;;;12.52;;
23115;SDS011;11727;52.134;5.052;2022-12-10T09:35:18;46.75;;;13.20;;
23115;SDS011;11727;52.134;5.052;2022-12-10T09:37:44;44.15;;;12.85;;
23115;SDS011;11727;52.134;5.052;2022-12-10T09:40:21;45.72;;;12.73;;
23115;SDS011;11727;52.134;5.052;2022-12-10T09:43:04;43.15;;;11.68;;
23115;SDS011;11727;52.134;5.052;2022-12-10T09:45:54;35.22;;;11.88;;
23115;SDS011;11727;52.134;5.052;2022-12-10T09:48:33;44.42;;;12.88;;
23115;SDS011;11727;52.134;5.052;2022-12-10T09:51:21;39.53;;;12.82;;
23115;SDS011;11727;52.134;5.052;2022-12-10T09:53:50;50.25;;;15.90;;
23115;SDS011;11727;52.134;5.052;2022-12-10T09:56:26;45.75;;;15.15;;
23115;SDS011;11727;52.134;5.052;2022-12-10T09:58:57;40.67;;;14.30;;
23115;SDS011;11727;52.134;5.052;2022-12-10T10:01:27;38.88;;;11.70;;
23115;SDS011;11727;52.134;5.052;2022-12-10T10:03:56;35.95;;;13.43;;
23115;SDS011;11727;52.134;5.052;2022-12-10T10:06:21;42.70;;;14.43;;
23115;SDS011;11727;52.134;5.052;2022-12-10T10:08:51;47.75;;;13.68;;
23115;SDS011;11727;52.134;5.052;2022-12-10T10:11:21;54.03;;;18.10;;
23115;SDS011;11727;52.134;5.052;2022-12-10T10:13:51;49.95;;;15.00;;
23115;SDS011;11727;52.134;5.052;2022-12-10T10:16:24;43.58;;;12.00;;
23115;SDS011;11727;52.134;5.052;2022-12-10T10:19:43;42.15;;;15.00;;
23115;SDS011;11727;52.134;5.052;2022-12-10T10:22:04;48.00;;;14.05;;
23115;SDS011;11727;52.134;5.052;2022-12-10T10:24:34;40.88;;;12.43;;
23115;SDS011;11727;52.134;5.052;2022-12-10T10:27:15;42.72;;;13.18;;
23115;SDS011;11727;52.134;5.052;2022-12-10T10:29:43;47.50;;;12.57;;
23115;SDS011;11727;52.134;5.052;2022-12-10T10:34:47;59.22;;;15.75;;
23115;SDS011;11727;52.134;5.052;2022-12-10T10:37:22;60.80;;;14.50;;
23115;SDS011;11727;52.134;5.052;2022-12-10T10:42:57;42.92;;;12.23;;
23115;SDS011;11727;52.134;5.052;2022-12-10T10:48:08;38.78;;;12.65;;
23115;SDS011;11727;52.134;5.052;2022-12-10T10:50:41;41.58;;;12.20;;
23115;SDS011;11727;52.134;5.052;2022-12-10T10:53:21;41.88;;;12.00;;
23115;SDS011;11727;52.134;5.052;2022-12-10T10:55:50;48.83;;;12.73;;
23115;SDS011;11727;52.134;5.052;2022-12-10T10:58:19;50.78;;;13.23;;
23115;SDS011;11727;52.134;5.052;2022-12-10T11:00:56;38.25;;;10.18;;
23115;SDS011;11727;52.134;5.052;2022-12-10T11:03:30;44.67;;;11.60;;
23115;SDS011;11727;52.134;5.052;2022-12-10T11:05:58;47.25;;;10.65;;
23115;SDS011;11727;52.134;5.052;2022-12-10T11:08:25;42.47;;;11.07;;
23115;SDS011;11727;52.134;5.052;2022-12-10T11:11:10;45.17;;;13.90;;
23115;SDS011;11727;52.134;5.052;2022-12-10T11:13:41;52.55;;;12.88;;
23115;SDS011;11727;52.134;5.052;2022-12-10T11:16:21;46.80;;;13.00;;
23115;SDS011;11727;52.134;5.052;2022-12-10T11:18:56;54.50;;;16.00;;
23115;SDS011;11727;52.134;5.052;2022-12-10T11:21:29;63.72;;;15.27;;
23115;SDS011;11727;52.134;5.052;2022-12-10T11:23:57;48.65;;;13.18;;
23115;SDS011;11727;52.134;5.052;2022-12-10T11:37:19;51.63;;;14.43;;
23115;SDS011;11727;52.134;5.052;2022-12-10T11:45:50;47.88;;;13.57;;
23115;SDS011;11727;52.134;5.052;2022-12-10T12:00:38;58.90;;;13.85;;
23115;SDS011;11727;52.134;5.052;2022-12-10T12:14:26;54.10;;;12.63;;
23115;SDS011;11727;52.134;5.052;2022-12-10T12:19:39;54.40;;;13.82;;
23115;SDS011;11727;52.134;5.052;2022-12-10T12:22:43;54.20;;;12.13;;
23115;SDS011;11727;52.134;5.052;2022-12-10T12:25:10;54.95;;;12.65;;
23115;SDS011;11727;52.134;5.052;2022-12-10T12:27:45;45.92;;;12.57;;
23115;SDS011;11727;52.134;5.052;2022-12-10T12:30:16;53.00;;;13.88;;
23115;SDS011;11727;52.134;5.052;2022-12-10T12:35:42;48.45;;;12.70;;
23115;SDS011;11727;52.134;5.052;2022-12-10T12:41:14;45.30;;;12.88;;
23115;SDS011;11727;52.134;5.052;2022-12-10T12:44:12;52.63;;;12.02;;
23115;SDS011;11727;52.134;5.052;2022-12-10T12:46:43;46.88;;;11.57;;
23115;SDS011;11727;52.134;5.052;2022-12-10T12:54:43;49.13;;;10.60;;
23115;SDS011;11727;52.134;5.052;2022-12-10T12:57:19;45.72;;;11.88;;
23115;SDS011;11727;52.134;5.052;2022-12-10T13:00:01;40.55;;;11.82;;
23115;SDS011;11727;52.134;5.052;2022-12-10T13:05:32;50.40;;;11.68;;
23115;SDS011;11727;52.134;5.052;2022-12-10T13:13:28;32.47;;;9.43;;
23115;SDS011;11727;52.134;5.052;2022-12-10T13:15:56;51.85;;;12.85;;
23115;SDS011;11727;52.134;5.052;2022-12-10T13:37:32;40.05;;;9.13;;
23115;SDS011;11727;52.134;5.052;2022-12-10T13:42:40;43.75;;;11.30;;
23115;SDS011;11727;52.134;5.052;2022-12-10T13:45:29;48.08;;;12.80;;
23115;SDS011;11727;52.134;5.052;2022-12-10T13:48:17;50.35;;;12.30;;
23115;SDS011;11727;52.134;5.052;2022-12-10T13:53:46;46.78;;;12.10;;
23115;SDS011;11727;52.134;5.052;2022-12-10T14:02:24;41.00;;;12.32;;
23115;SDS011;11727;52.134;5.052;2022-12-10T14:05:27;45.70;;;11.70;;
23115;SDS011;11727;52.134;5.052;2022-12-10T14:08:08;62.88;;;12.80;;
23115;SDS011;11727;52.134;5.052;2022-12-10T14:10:41;69.07;;;15.13;;
23115;SDS011;11727;52.134;5.052;2022-12-10T14:13:10;48.53;;;13.32;;
23115;SDS011;11727;52.134;5.052;2022-12-10T14:15:38;43.47;;;12.43;;
23115;SDS011;11727;52.134;5.052;2022-12-10T14:18:11;44.15;;;12.18;;
23115;SDS011;11727;52.134;5.052;2022-12-10T14:20:41;59.83;;;13.30;;
23115;SDS011;11727;52.134;5.052;2022-12-10T14:26:14;56.67;;;13.27;;
23115;SDS011;11727;52.134;5.052;2022-12-10T14:28:48;52.10;;;14.13;;
23115;SDS011;11727;52.134;5.052;2022-12-10T14:31:17;65.78;;;14.02;;
23115;SDS011;11727;52.134;5.052;2022-12-10T14:34:10;56.53;;;13.45;;
23115;SDS011;11727;52.134;5.052;2022-12-10T14:36:45;45.28;;;12.35;;
23115;SDS011;11727;52.134;5.052;2022-12-10T14:39:16;79.72;;;16.75;;
23115;SDS011;11727;52.134;5.052;2022-12-10T14:41:44;52.33;;;12.30;;
23115;SDS011;11727;52.134;5.052;2022-12-10T14:44:12;49.17;;;12.50;;
23115;SDS011;11727;52.134;5.052;2022-12-10T14:46:41;50.80;;;13.38;;
23115;SDS011;11727;52.134;5.052;2022-12-10T14:49:15;57.03;;;13.45;;
23115;SDS011;11727;52.134;5.052;2022-12-10T14:51:44;67.30;;;14.00;;
23115;SDS011;11727;52.134;5.052;2022-12-10T14:54:27;52.47;;;13.90;;
23115;SDS011;11727;52.134;5.052;2022-12-10T14:56:56;35.30;;;11.13;;
23115;SDS011;11727;52.134;5.052;2022-12-10T14:59:25;48.95;;;11.70;;
23115;SDS011;11727;52.134;5.052;2022-12-10T15:02:10;73.88;;;14.82;;
23115;SDS011;11727;52.134;5.052;2022-12-10T15:04:47;50.67;;;13.02;;
23115;SDS011;11727;52.134;5.052;2022-12-10T15:07:14;64.53;;;13.18;;
23115;SDS011;11727;52.134;5.052;2022-12-10T15:09:43;55.65;;;12.55;;
23115;SDS011;11727;52.134;5.052;2022-12-10T15:15:10;56.88;;;13.13;;
23115;SDS011;11727;52.134;5.052;2022-12-10T15:17:45;54.75;;;12.80;;
23115;SDS011;11727;52.134;5.052;2022-12-10T15:20:27;47.70;;;11.73;;
23115;SDS011;11727;52.134;5.052;2022-12-10T15:28:37;54.78;;;14.45;;
23115;SDS011;11727;52.134;5.052;2022-12-10T15:34:01;55.25;;;11.38;;
23115;SDS011;11727;52.134;5.052;2022-12-10T15:39:18;47.60;;;13.05;;
23115;SDS011;11727;52.134;5.052;2022-12-10T15:44:31;64.15;;;14.55;;
23115;SDS011;11727;52.134;5.052;2022-12-10T15:47:20;60.63;;;13.40;;
23115;SDS011;11727;52.134;5.052;2022-12-10T15:49:48;51.55;;;13.05;;
23115;SDS011;11727;52.134;5.052;2022-12-10T15:52:21;49.30;;;13.05;;
23115;SDS011;11727;52.134;5.052;2022-12-10T15:54:50;50.47;;;12.18;;
23115;SDS011;11727;52.134;5.052;2022-12-10T15:57:18;62.55;;;14.32;;
23115;SDS011;11727;52.134;5.052;2022-12-10T15:59:46;56.85;;;13.93;;
23115;SDS011;11727;52.134;5.052;2022-12-10T16:05:02;72.43;;;16.65;;
23115;SDS011;11727;52.134;5.052;2022-12-10T16:10:47;50.78;;;13.18;;
23115;SDS011;11727;52.134;5.052;2022-12-10T16:13:20;70.53;;;17.00;;
23115;SDS011;11727;52.134;5.052;2022-12-10T16:15:54;62.63;;;13.73;;
23115;SDS011;11727;52.134;5.052;2022-12-10T16:18:23;58.80;;;15.77;;
23115;SDS011;11727;52.134;5.052;2022-12-10T16:20:49;63.57;;;16.63;;
23115;SDS011;11727;52.134;5.052;2022-12-10T16:23:15;61.67;;;14.27;;
23115;SDS011;11727;52.134;5.052;2022-12-10T16:25:41;58.42;;;13.63;;
23115;SDS011;11727;52.134;5.052;2022-12-10T16:28:16;66.07;;;15.18;;
23115;SDS011;11727;52.134;5.052;2022-12-10T16:30:47;57.58;;;13.73;;
23115;SDS011;11727;52.134;5.052;2022-12-10T16:33:15;52.17;;;13.77;;
23115;SDS011;11727;52.134;5.052;2022-12-10T16:35:43;46.65;;;13.05;;
23115;SDS011;11727;52.134;5.052;2022-12-10T16:38:09;60.65;;;13.82;;
23115;SDS011;11727;52.134;5.052;2022-12-10T16:40:35;59.38;;;14.25;;
23115;SDS011;11727;52.134;5.052;2022-12-10T16:43:01;61.92;;;15.88;;
23115;SDS011;11727;52.134;5.052;2022-12-10T16:45:28;54.75;;;11.82;;
23115;SDS011;11727;52.134;5.052;2022-12-10T16:47:56;53.45;;;14.32;;
23115;SDS011;11727;52.134;5.052;2022-12-10T16:50:22;47.33;;;13.77;;
23115;SDS011;11727;52.134;5.052;2022-12-10T16:52:49;53.30;;;13.70;;
23115;SDS011;11727;52.134;5.052;2022-12-10T16:55:17;48.50;;;12.30;;
23115;SDS011;11727;52.134;5.052;2022-12-10T16:57:45;50.83;;;12.98;;
23115;SDS011;11727;52.134;5.052;2022-12-10T17:00:15;51.15;;;13.60;;
23115;SDS011;11727;52.134;5.052;2022-12-10T17:02:44;47.30;;;14.02;;
23115;SDS011;11727;52.134;5.052;2022-12-10T17:05:17;59.38;;;13.65;;
23115;SDS011;11727;52.134;5.052;2022-12-10T17:07:51;64.80;;;13.60;;
23115;SDS011;11727;52.134;5.052;2022-12-10T17:10:16;52.22;;;14.07;;
23115;SDS011;11727;52.134;5.052;2022-12-10T17:13:03;52.08;;;14.57;;